Skip Navigation LinksHome page > Weather > Current weather Skip Navigation Links

Current Weather

Denver Intl, Denver

For information only: do not use for flight planning or navigation.
Latest weather
Observation time Monday, June 21, 2021 6:53 PM MDT
Local time Monday, June 21, 2021 7:11 PM MDT
Flight conditions Visual Meteorological Conditions
Winds
Wind direction South (170°)
Wind speed 7 mph
Visibility 10 mi.
Sky condition
Ceiling unlimited
Cloud layer few clouds 5,000 ft.
Cloud layer few clouds 25,000 ft.
Temperature 71°F
Dewpoint 48°F
Altimeter 30.12 in.Hg
Derived measurements
Relative humidity 44%
Density altitude 6150 ft.
Sea-level pressure 29.93 in.Hg
Remarks
Automated weather observing station with precipitation discriminator.
METAR KDEN 220053Z 17006KT 10SM FEW050 FEW250 22/09 A3012 RMK AO2 SLP137 T02170089

Settings

Location code

InnerDrive.Weather 4.0.6770.0 Release CLR 4.0.30319.42000
Copyright ©2018 Inner Drive Technology. All rights reserved. Portions Copyright ©1986-2018 David Braverman.

Find weather

Site navigation


Skip Navigation Links

Place info

Page info

PayPal - The safer, easier way to pay online!

Return home.

Copyright ©2021 Inner Drive Technology. Purveyors of fine, hand-crafted computer software. Page printed 2021-06-22T01:11:31 UTC.